Time;durP1;ratioP1;P1;durP2;ratioP2;P2;SDS_P1;SDS_P2;PMS_P1;PMS_P2;Temp;Humidity;BMP_temperature;BMP_pressure;BME280_temperature;BME280_humidity;BME280_pressure;Samples;Min_cycle;Max_cycle;Signal;HPM_P1;HPM_P2
2021/06/16 00:01:35;;;;;;;1.07;0.97;;;;;;;13.74;83.23;100804.53;5051296;28;20241;-70
2021/06/16 00:04:00;;;;;;;0.77;0.77;;;;;;;13.65;83.78;100806.50;5051202;28;20171;-71
2021/06/16 00:06:26;;;;;;;1.30;1.00;;;;;;;13.63;84.26;100795.81;5050928;28;20207;-72
2021/06/16 00:08:52;;;;;;;1.00;1.00;;;;;;;13.60;84.55;100801.16;5051083;28;20229;-71
2021/06/16 00:11:17;;;;;;;0.90;0.80;;;;;;;13.58;84.39;100797.91;5051155;28;20623;-71
2021/06/16 00:13:42;;;;;;;0.70;0.70;;;;;;;13.59;84.01;100792.09;5051300;28;20187;-71
2021/06/16 00:16:08;;;;;;;1.73;1.20;;;;;;;13.54;84.35;100789.53;5051101;28;20175;-71
2021/06/16 00:18:33;;;;;;;3.10;0.83;;;;;;;13.49;84.57;100795.19;5050709;28;20694;-71
2021/06/16 00:20:59;;;;;;;3.23;1.17;;;;;;;13.40;84.10;100802.59;5050916;28;20175;-71
2021/06/16 00:23:24;;;;;;;1.70;1.37;;;;;;;13.33;84.81;100803.06;5050748;28;20228;-71
2021/06/16 00:25:49;;;;;;;0.70;0.70;;;;;;;13.31;85.27;100799.03;5050869;28;20178;-71
2021/06/16 00:28:15;;;;;;;1.00;1.00;;;;;;;13.25;85.88;100803.06;5050390;28;20686;-71
2021/06/16 00:30:41;;;;;;;1.73;0.93;;;;;;;13.22;85.78;100804.50;5050824;28;20175;-71
2021/06/16 00:33:07;;;;;;;1.80;1.43;;;;;;;13.17;85.74;100799.16;5050745;28;20183;-71
2021/06/16 00:35:32;;;;;;;1.83;0.87;;;;;;;13.11;85.87;100797.66;5050707;28;20186;-71
2021/06/16 00:37:59;;;;;;;0.77;0.77;;;;;;;13.08;86.29;100788.16;5050380;28;20275;-71
2021/06/16 00:40:26;;;;;;;0.70;0.67;;;;;;;13.08;86.69;100801.88;5049260;28;20216;-71
2021/06/16 00:42:52;;;;;;;1.50;1.00;;;;;;;13.04;87.25;100797.34;5050679;28;20178;-71
2021/06/16 00:45:19;;;;;;;1.27;1.17;;;;;;;13.02;86.78;100796.88;5050535;28;20869;-71
2021/06/16 00:47:45;;;;;;;0.67;0.67;;;;;;;12.96;87.07;100793.44;5050074;28;20238;-71
2021/06/16 00:50:11;;;;;;;1.43;1.37;;;;;;;12.88;87.36;100791.50;5050388;28;20173;-71
2021/06/16 00:52:37;;;;;;;1.70;1.17;;;;;;;12.80;87.88;100800.50;5082640;28;20729;-71
2021/06/16 00:55:05;;;;;;;1.00;0.90;;;;;;;12.70;88.44;100785.13;5049040;28;20270;-71
2021/06/16 00:57:30;;;;;;;0.90;0.87;;;;;;;12.59;88.77;100788.50;5050050;28;20178;-71
2021/06/16 01:00:06;;;;;;;0.80;0.80;;;;;;;12.55;88.55;100787.47;5050243;28;20434;-71
2021/06/16 01:02:37;;;;;;;5.97;1.47;;;;;;;12.58;89.20;100787.66;5050376;28;20236;-71
2021/06/16 01:05:05;;;;;;;1.00;1.00;;;;;;;12.61;89.17;100794.47;5049960;28;20201;-71
2021/06/16 01:07:37;;;;;;;0.67;0.67;;;;;;;12.52;88.84;100780.72;5049919;28;20213;-71
2021/06/16 01:10:05;;;;;;;0.80;0.80;;;;;;;12.44;88.84;100781.47;5050237;28;20673;-71
2021/06/16 01:13:01;;;;;;;1.00;1.00;;;;;;;12.34;89.60;100785.31;5050273;28;20597;-71
2021/06/16 01:15:30;;;;;;;1.60;1.50;;;;;;;12.32;90.27;100784.00;5050431;28;20180;-71
2021/06/16 01:17:59;;;;;;;1.63;1.53;;;;;;;12.29;90.27;100779.13;5049896;28;20281;-70
2021/06/16 01:20:31;;;;;;;2.20;1.20;;;;;;;12.26;90.36;100786.06;5082308;28;20179;-72
2021/06/16 01:22:59;;;;;;;0.80;0.73;;;;;;;12.21;90.36;100776.06;5050212;28;20665;-71
2021/06/16 01:25:29;;;;;;;1.50;1.40;;;;;;;12.22;90.75;100782.34;5049823;28;20172;-71
2021/06/16 01:27:56;;;;;;;1.07;1.07;;;;;;;12.21;90.20;100778.78;5049747;28;20211;-71
2021/06/16 01:30:24;;;;;;;1.67;0.90;;;;;;;12.24;90.86;100776.53;5050047;28;20175;-71
2021/06/16 01:32:50;;;;;;;1.77;0.97;;;;;;;12.22;91.03;100785.06;5050177;28;20199;-71
2021/06/16 01:35:16;;;;;;;1.10;0.83;;;;;;;12.21;90.85;100780.72;5050053;28;20241;-71
2021/06/16 01:37:41;;;;;;;0.80;0.80;;;;;;;12.19;90.76;100778.31;5049612;28;20666;-71
2021/06/16 01:40:09;;;;;;;1.03;1.03;;;;;;;12.12;91.21;100777.91;5049955;28;20662;-71
2021/06/16 01:42:36;;;;;;;1.10;1.00;;;;;;;12.09;90.57;100772.28;5049909;28;20233;-71
2021/06/16 01:45:02;;;;;;;2.20;0.80;;;;;;;12.02;91.03;100777.41;5049960;28;20211;-71
2021/06/16 01:47:28;;;;;;;1.50;1.10;;;;;;;12.00;91.76;100777.69;5049501;28;20662;-71
2021/06/16 01:49:56;;;;;;;1.40;1.30;;;;;;;12.03;91.72;100779.81;5062948;28;20265;-71
2021/06/16 01:52:24;;;;;;;0.93;0.87;;;;;;;12.05;92.18;100774.84;5049589;28;20207;-70
2021/06/16 01:54:53;;;;;;;2.53;2.27;;;;;;;12.06;91.47;100776.44;5049942;28;20182;-71
2021/06/16 01:57:20;;;;;;;1.90;1.50;;;;;;;12.08;91.71;100781.59;5048232;28;20262;-72
2021/06/16 01:59:46;;;;;;;1.13;1.13;;;;;;;12.04;91.61;100775.94;5049711;28;20182;-71
2021/06/16 02:02:11;;;;;;;1.47;0.90;;;;;;;12.02;92.28;100783.69;5049803;28;20241;-71
2021/06/16 02:04:37;;;;;;;2.10;1.27;;;;;;;11.94;91.44;100778.13;5049646;28;20179;-71
2021/06/16 02:07:25;;;;;;;1.50;1.00;;;;;;;11.88;92.06;100781.00;5049205;28;20206;-71
2021/06/16 02:09:53;;;;;;;1.20;1.10;;;;;;;11.83;92.38;100775.63;5049696;28;20244;-72
2021/06/16 02:12:20;;;;;;;1.20;1.10;;;;;;;11.81;92.83;100780.63;5049803;28;20172;-71
2021/06/16 02:14:58;;;;;;;1.77;1.67;;;;;;;11.76;92.66;100764.31;5045110;28;20183;-71
2021/06/16 02:17:28;;;;;;;0.83;0.80;;;;;;;11.71;93.01;100769.06;5032436;28;20527;-71
2021/06/16 02:19:54;;;;;;;1.27;1.00;;;;;;;11.62;93.53;100761.63;5033275;28;20313;-70
2021/06/16 02:22:23;;;;;;;1.50;1.23;;;;;;;11.70;93.91;100756.50;5033121;28;20172;-71
2021/06/16 02:24:49;;;;;;;1.20;1.13;;;;;;;11.81;93.45;100761.47;5033542;28;20209;-71
2021/06/16 02:27:14;;;;;;;0.80;0.80;;;;;;;11.82;93.57;100754.06;5032664;28;20216;-71
2021/06/16 02:29:40;;;;;;;1.37;1.27;;;;;;;11.80;93.19;100751.63;5033144;28;20239;-71
2021/06/16 02:32:05;;;;;;;0.97;0.97;;;;;;;11.84;93.18;100754.53;5033069;28;20176;-71
2021/06/16 02:34:32;;;;;;;2.23;1.53;;;;;;;11.83;92.88;100751.00;5033041;28;20503;-71
2021/06/16 02:37:00;;;;;;;1.40;1.30;;;;;;;11.81;92.74;100736.81;5032672;28;20192;-71
2021/06/16 02:39:45;;;;;;;0.70;0.70;;;;;;;11.87;93.11;100748.47;5032918;28;20175;-71
2021/06/16 02:42:11;;;;;;;4.20;1.20;;;;;;;11.85;92.75;100748.75;5032935;28;20184;-71
2021/06/16 02:44:42;;;;;;;1.30;1.20;;;;;;;11.81;93.09;100744.22;5033161;28;20176;-71
2021/06/16 02:47:09;;;;;;;0.97;0.97;;;;;;;11.72;92.88;100744.16;5032370;28;20208;-71
2021/06/16 02:49:40;;;;;;;0.97;0.97;;;;;;;11.66;92.76;100739.09;5032887;28;20176;-72
2021/06/16 02:52:09;;;;;;;1.43;1.27;;;;;;;11.63;93.44;100746.00;5032829;28;20207;-71
2021/06/16 02:54:36;;;;;;;1.43;1.33;;;;;;;11.60;93.28;100743.91;5032860;28;20263;-72
2021/06/16 02:57:03;;;;;;;2.10;1.37;;;;;;;11.49;93.18;100737.84;5032232;28;20194;-71
2021/06/16 02:59:31;;;;;;;2.10;1.37;;;;;;;11.49;93.92;100740.59;5032904;28;20310;-72
2021/06/16 03:01:56;;;;;;;1.13;1.13;;;;;;;11.53;94.33;100727.91;5033240;28;20230;-71
2021/06/16 03:04:23;;;;;;;0.80;0.80;;;;;;;11.56;94.74;100726.47;5032718;28;20630;-71
2021/06/16 03:06:51;;;;;;;1.10;1.10;;;;;;;11.54;94.31;100725.97;5032918;28;20260;-71
2021/06/16 03:09:22;;;;;;;1.30;0.97;;;;;;;11.51;94.66;100732.06;5032422;28;20184;-71
2021/06/16 03:11:50;;;;;;;1.40;1.37;;;;;;;11.48;95.16;100729.97;5032438;28;20183;-71
2021/06/16 03:14:16;;;;;;;1.57;1.47;;;;;;;11.45;94.28;100736.88;5032552;28;20180;-72
2021/06/16 03:16:42;;;;;;;1.60;1.50;;;;;;;11.43;94.64;100736.38;5032031;28;20187;-71
2021/06/16 03:19:08;;;;;;;2.20;1.57;;;;;;;11.41;94.75;100729.56;5032240;28;20176;-72
2021/06/16 03:21:35;;;;;;;1.50;1.40;;;;;;;11.44;94.89;100727.03;5032123;28;20688;-72
2021/06/16 03:24:01;;;;;;;1.67;1.33;;;;;;;11.47;95.36;100731.09;5041635;28;20650;-72
2021/06/16 03:26:28;;;;;;;1.50;1.40;;;;;;;11.47;95.23;100733.81;5051728;28;20261;-72
2021/06/16 03:28:55;;;;;;;1.30;1.20;;;;;;;11.50;95.04;100728.53;5052086;28;20230;-71
2021/06/16 03:31:21;;;;;;;1.60;1.50;;;;;;;11.59;95.78;100734.06;5051990;28;20179;-72
2021/06/16 03:33:48;;;;;;;2.77;1.73;;;;;;;11.66;95.01;100730.88;5051965;28;20171;-71
2021/06/16 03:36:15;;;;;;;1.47;1.37;;;;;;;11.69;95.13;100730.25;5051700;28;20259;-71
2021/06/16 03:38:43;;;;;;;1.47;1.37;;;;;;;11.70;94.69;100729.13;5051504;28;20186;-71
2021/06/16 03:41:09;;;;;;;6.57;1.50;;;;;;;11.79;95.36;100739.06;5051792;28;20219;-71
2021/06/16 03:43:36;;;;;;;3.07;1.77;;;;;;;11.83;95.04;100733.78;5051717;28;20171;-71
2021/06/16 03:46:05;;;;;;;1.67;1.33;;;;;;;11.93;95.25;100732.72;5051721;28;20172;-71
2021/06/16 03:48:32;;;;;;;2.00;1.43;;;;;;;11.93;94.59;100727.22;5051779;28;20175;-71
2021/06/16 03:50:58;;;;;;;1.30;1.20;;;;;;;11.96;94.88;100715.66;5051384;28;20638;-71
2021/06/16 03:53:24;;;;;;;1.63;1.53;;;;;;;12.05;95.11;100725.53;5051441;28;20205;-71
2021/06/16 03:55:51;;;;;;;2.73;1.43;;;;;;;12.18;94.91;100726.56;5051514;28;20175;-71
2021/06/16 03:58:17;;;;;;;2.17;1.97;;;;;;;12.24;94.17;100719.00;5051050;28;20179;-72
2021/06/16 04:00:43;;;;;;;2.83;1.73;;;;;;;12.27;93.89;100716.44;5051252;28;20194;-72
2021/06/16 04:03:11;;;;;;;1.27;1.17;;;;;;;12.37;93.43;100715.38;5051310;28;20271;-72
2021/06/16 04:05:37;;;;;;;1.77;1.67;;;;;;;12.46;92.73;100724.44;5051131;28;20171;-71
2021/06/16 04:08:04;;;;;;;1.50;1.40;;;;;;;12.55;92.47;100716.22;5050912;28;20230;-72
2021/06/16 04:10:31;;;;;;;1.87;1.43;;;;;;;12.63;91.85;100719.00;5051198;28;20568;-72
2021/06/16 04:12:57;;;;;;;1.57;1.47;;;;;;;12.77;92.38;100721.63;5051084;28;20566;-72
2021/06/16 04:15:22;;;;;;;1.37;1.30;;;;;;;12.96;92.19;100713.09;5051175;28;20181;-72
2021/06/16 04:17:48;;;;;;;2.70;1.70;;;;;;;13.08;91.52;100722.31;5050777;28;20520;-71
2021/06/16 04:20:15;;;;;;;2.97;2.30;;;;;;;13.10;89.93;100714.56;5050857;28;20202;-72
2021/06/16 04:22:40;;;;;;;1.77;1.67;;;;;;;13.24;90.05;100724.63;5050942;28;20457;-72
2021/06/16 04:25:08;;;;;;;2.20;1.37;;;;;;;13.27;88.93;100715.72;5050909;28;20573;-72
2021/06/16 04:27:33;;;;;;;1.83;1.73;;;;;;;13.35;87.11;100723.97;5050989;28;20209;-72
2021/06/16 04:29:59;;;;;;;1.63;1.53;;;;;;;13.43;86.94;100719.59;5050775;28;20237;-72
2021/06/16 04:32:24;;;;;;;4.90;2.13;;;;;;;13.48;86.33;100715.91;5050818;28;20175;-72
2021/06/16 04:34:50;;;;;;;2.67;1.97;;;;;;;13.68;86.75;100721.53;5051051;28;20687;-71
2021/06/16 04:37:15;;;;;;;2.10;1.90;;;;;;;13.74;86.26;100719.41;5050546;28;20254;-72
2021/06/16 04:39:40;;;;;;;2.13;1.40;;;;;;;13.80;86.23;100723.59;5050049;28;20178;-72
2021/06/16 04:42:06;;;;;;;1.63;1.53;;;;;;;13.96;86.49;100721.16;5050570;28;20171;-71
2021/06/16 04:44:32;;;;;;;1.97;1.87;;;;;;;13.84;84.98;100713.56;5050510;28;20591;-72
2021/06/16 04:46:57;;;;;;;1.87;1.70;;;;;;;13.84;85.61;100713.56;5050645;28;20277;-72
2021/06/16 04:49:23;;;;;;;1.90;1.73;;;;;;;13.81;85.25;100713.44;5050831;28;20618;-72
2021/06/16 04:51:49;;;;;;;2.80;2.60;;;;;;;13.89;85.10;100715.34;5050366;28;20195;-72
2021/06/16 04:54:14;;;;;;;1.70;1.60;;;;;;;14.15;85.17;100712.50;5050427;28;20219;-71
2021/06/16 04:56:40;;;;;;;10.80;2.30;;;;;;;14.02;83.34;100708.84;5050261;28;20179;-71
2021/06/16 04:59:06;;;;;;;4.93;2.13;;;;;;;13.99;84.01;100709.50;5050286;28;20695;-71
2021/06/16 05:01:33;;;;;;;3.10;1.90;;;;;;;14.07;83.72;100705.94;5049133;28;20183;-71
2021/06/16 05:03:59;;;;;;;2.10;2.00;;;;;;;14.10;83.83;100702.53;5050111;28;20186;-72
2021/06/16 05:06:24;;;;;;;2.60;2.40;;;;;;;14.16;83.92;100695.69;5050168;28;20491;-71
2021/06/16 05:08:49;;;;;;;2.07;1.97;;;;;;;14.35;83.89;100692.56;5050235;28;20174;-71
2021/06/16 05:11:15;;;;;;;2.40;2.20;;;;;;;14.48;82.90;100693.50;5050211;28;20175;-72
2021/06/16 05:13:40;;;;;;;2.07;1.97;;;;;;;14.61;81.81;100694.38;5050490;28;20171;-72
2021/06/16 05:16:06;;;;;;;1.77;1.67;;;;;;;14.72;82.23;100685.41;5050155;28;20619;-71
2021/06/16 05:18:32;;;;;;;2.23;2.10;;;;;;;14.73;81.60;100691.72;5049769;28;20175;-72
2021/06/16 05:20:58;;;;;;;2.63;2.43;;;;;;;14.73;81.70;100692.53;5050128;28;20254;-72
2021/06/16 05:23:29;;;;;;;5.67;3.07;;;;;;;14.83;81.23;100694.09;5050031;28;20181;-72
2021/06/16 05:25:55;;;;;;;2.60;2.47;;;;;;;14.77;80.68;100688.00;5050076;28;20176;-72
2021/06/16 05:28:21;;;;;;;2.17;2.07;;;;;;;14.95;81.40;100688.69;5049794;28;20252;-72
2021/06/16 05:30:46;;;;;;;2.40;2.20;;;;;;;15.06;81.51;100678.88;5050121;28;20596;-71
2021/06/16 05:33:11;;;;;;;2.30;2.10;;;;;;;15.06;81.33;100678.09;5050401;28;20518;-72
2021/06/16 05:35:37;;;;;;;4.00;2.67;;;;;;;14.96;81.19;100679.28;5049969;28;20237;-71
2021/06/16 05:38:03;;;;;;;3.37;2.70;;;;;;;15.07;81.65;100672.25;5049773;28;20171;-71
2021/06/16 05:40:28;;;;;;;2.30;1.90;;;;;;;15.22;82.35;100679.09;5049924;28;20176;-71
2021/06/16 05:42:54;;;;;;;3.03;2.57;;;;;;;15.33;80.86;100674.75;5050163;28;20179;-71
2021/06/16 05:45:19;;;;;;;2.53;2.33;;;;;;;15.38;80.76;100671.81;5049971;28;20250;-71
2021/06/16 05:47:45;;;;;;;3.27;2.97;;;;;;;15.49;81.02;100672.22;5049406;28;20604;-71
2021/06/16 05:50:11;;;;;;;2.87;2.67;;;;;;;15.57;79.60;100671.31;5049873;28;20229;-71
2021/06/16 05:52:36;;;;;;;3.60;3.03;;;;;;;15.63;80.37;100666.44;5053432;28;20523;-71
2021/06/16 05:55:03;;;;;;;3.13;2.93;;;;;;;15.71;79.59;100674.59;5053673;28;20488;-71
2021/06/16 05:57:29;;;;;;;6.60;3.23;;;;;;;15.63;79.41;100670.00;5053505;28;20229;-71
2021/06/16 05:59:54;;;;;;;3.97;3.23;;;;;;;15.73;80.26;100671.50;5053528;28;20630;-72
2021/06/16 06:02:19;;;;;;;2.57;2.37;;;;;;;15.75;79.53;100677.47;5052190;28;20672;-71
2021/06/16 06:04:45;;;;;;;2.77;2.57;;;;;;;15.95;80.83;100681.31;5053517;28;20206;-71
2021/06/16 06:07:10;;;;;;;3.03;2.87;;;;;;;16.06;79.11;100668.72;5053044;28;20211;-71
2021/06/16 06:09:35;;;;;;;2.83;2.63;;;;;;;16.06;79.36;100669.50;5053458;28;20217;-71
2021/06/16 06:12:01;;;;;;;4.07;2.77;;;;;;;16.07;80.10;100673.06;5053291;28;20275;-71
2021/06/16 06:14:26;;;;;;;2.53;2.33;;;;;;;16.13;80.37;100668.13;5053453;28;20651;-71
2021/06/16 06:16:52;;;;;;;3.53;2.53;;;;;;;16.13;81.00;100665.38;5052968;28;20213;-71
2021/06/16 06:19:17;;;;;;;3.13;2.87;;;;;;;16.20;79.92;100671.09;5053230;28;20179;-71
2021/06/16 06:21:43;;;;;;;3.17;2.97;;;;;;;16.34;79.02;100672.38;5053333;28;20179;-71
2021/06/16 06:24:08;;;;;;;2.70;2.50;;;;;;;16.40;79.20;100667.44;5053237;28;20183;-71
2021/06/16 06:26:34;;;;;;;3.10;2.80;;;;;;;16.39;79.95;100663.09;5052757;28;20284;-71
2021/06/16 06:29:00;;;;;;;2.93;2.73;;;;;;;16.51;80.35;100659.53;5053038;28;20172;-71
2021/06/16 06:31:26;;;;;;;3.10;2.80;;;;;;;16.61;79.04;100659.84;5052889;28;20565;-71
2021/06/16 06:33:52;;;;;;;2.67;2.47;;;;;;;16.63;78.40;100657.53;5053117;28;20221;-71
2021/06/16 06:36:19;;;;;;;2.97;2.77;;;;;;;16.79;78.36;100662.41;5052761;28;20171;-71
2021/06/16 06:38:45;;;;;;;3.43;3.13;;;;;;;17.05;78.23;100660.00;5052886;28;20175;-71
2021/06/16 06:41:12;;;;;;;3.07;2.87;;;;;;;17.09;77.16;100646.31;5052943;28;20171;-71
2021/06/16 06:43:37;;;;;;;2.60;2.40;;;;;;;17.17;76.25;100653.66;5052829;28;20512;-72
2021/06/16 06:46:03;;;;;;;2.43;2.23;;;;;;;17.17;74.72;100646.16;5053497;28;20185;-72
2021/06/16 06:48:28;;;;;;;3.73;3.30;;;;;;;17.26;74.66;100648.78;5051472;28;20218;-73
2021/06/16 06:50:54;;;;;;;3.53;3.17;;;;;;;17.41;75.46;100652.75;5055363;28;20191;-73
2021/06/16 06:53:21;;;;;;;2.90;2.70;;;;;;;17.49;75.09;100646.25;5027258;28;20183;-73
2021/06/16 06:55:47;;;;;;;3.30;3.00;;;;;;;17.54;74.09;100646.81;5052728;28;20175;-73
2021/06/16 06:58:13;;;;;;;3.87;3.23;;;;;;;17.62;74.74;100647.00;5032290;28;20645;-72
2021/06/16 07:00:38;;;;;;;3.43;3.03;;;;;;;17.64;74.23;100645.47;5014019;28;20201;-72
2021/06/16 07:03:04;;;;;;;3.70;3.37;;;;;;;17.83;74.88;100651.19;5045275;28;20237;-72
2021/06/16 07:05:29;;;;;;;3.33;3.00;;;;;;;17.87;72.87;100648.50;5051834;28;20225;-72
2021/06/16 07:07:55;;;;;;;2.57;2.40;;;;;;;17.95;73.07;100646.72;5051567;28;20705;-72
2021/06/16 07:10:20;;;;;;;2.80;2.60;;;;;;;18.04;73.96;100641.81;5052610;28;20529;-72
2021/06/16 07:12:45;;;;;;;2.43;2.23;;;;;;;18.23;74.40;100630.84;5052496;28;20210;-72
2021/06/16 07:15:11;;;;;;;1.90;1.80;;;;;;;18.39;72.60;100636.34;5052277;28;20531;-72
2021/06/16 07:17:37;;;;;;;2.30;2.10;;;;;;;18.38;72.21;100635.56;5051917;28;20175;-72
2021/06/16 07:20:05;;;;;;;2.37;2.00;;;;;;;18.43;72.24;100640.00;5068686;28;20642;-72
2021/06/16 07:22:30;;;;;;;2.70;2.50;;;;;;;18.49;72.10;100633.00;5062823;28;20176;-73
2021/06/16 07:24:55;;;;;;;2.47;2.27;;;;;;;18.62;73.09;100630.94;5050717;28;20171;-73
2021/06/16 07:27:21;;;;;;;2.47;2.27;;;;;;;18.82;71.32;100638.16;5056738;28;20203;-72
2021/06/16 07:29:46;;;;;;;2.70;2.50;;;;;;;18.71;70.85;100626.03;5051642;28;20175;-73
2021/06/16 07:32:12;;;;;;;2.50;2.30;;;;;;;18.82;72.44;100629.84;5053156;28;20179;-72
2021/06/16 07:34:37;;;;;;;1.97;1.80;;;;;;;18.96;71.22;100627.38;5060096;28;20566;-71
2021/06/16 07:37:03;;;;;;;2.07;1.90;;;;;;;19.05;70.06;100621.63;5051638;28;20187;-71
2021/06/16 07:39:28;;;;;;;1.83;1.73;;;;;;;19.18;71.05;100616.72;5051799;28;20182;-73
2021/06/16 07:41:54;;;;;;;1.70;1.60;;;;;;;19.25;70.67;100616.88;5056561;28;20317;-72
2021/06/16 07:44:19;;;;;;;2.33;1.80;;;;;;;19.31;69.48;100613.44;5051718;28;20282;-72
2021/06/16 07:46:45;;;;;;;2.60;2.30;;;;;;;19.30;68.47;100611.84;5052359;28;20666;-72
2021/06/16 07:49:10;;;;;;;3.93;1.83;;;;;;;19.36;69.66;100608.75;5052352;28;20191;-71
2021/06/16 07:51:36;;;;;;;2.10;2.00;;;;;;;19.39;68.61;100613.59;5051208;28;20220;-71
2021/06/16 07:54:01;;;;;;;2.00;1.90;;;;;;;19.69;68.50;100611.00;5051254;28;20527;-72
2021/06/16 07:56:27;;;;;;;2.60;1.37;;;;;;;19.74;68.37;100607.94;5050453;28;20168;-71
2021/06/16 07:58:52;;;;;;;2.10;1.90;;;;;;;20.01;67.10;100611.56;5051238;28;20179;-72
2021/06/16 08:01:19;;;;;;;2.27;1.80;;;;;;;20.17;66.59;100613.00;5050994;28;20191;-72
2021/06/16 08:03:44;;;;;;;2.40;1.63;;;;;;;20.24;66.82;100615.09;5033456;28;20286;-72
2021/06/16 08:06:10;;;;;;;1.93;1.83;;;;;;;20.34;66.67;100616.44;5066154;28;20273;-72
2021/06/16 08:08:35;;;;;;;1.80;1.70;;;;;;;20.31;65.41;100611.63;5053741;28;20198;-71
2021/06/16 08:11:01;;;;;;;1.73;1.50;;;;;;;20.19;64.22;100616.22;5048728;28;20249;-72
2021/06/16 08:13:27;;;;;;;3.87;2.13;;;;;;;20.31;65.02;100617.19;5047865;28;20182;-72
2021/06/16 08:15:52;;;;;;;2.00;1.43;;;;;;;20.34;64.74;100625.56;5050929;28;20181;-72
2021/06/16 08:18:18;;;;;;;3.93;1.90;;;;;;;20.39;64.81;100621.66;5050685;28;20179;-72
2021/06/16 08:20:43;;;;;;;1.57;1.47;;;;;;;20.47;65.55;100617.84;5050436;28;20262;-72
2021/06/16 08:23:08;;;;;;;2.23;2.07;;;;;;;20.37;63.77;100616.47;5051529;28;20185;-73
2021/06/16 08:25:34;;;;;;;6.87;2.03;;;;;;;20.60;66.11;100604.56;5056841;28;20218;-72
2021/06/16 08:28:00;;;;;;;1.57;1.47;;;;;;;20.72;64.55;100607.91;5059576;28;20665;-73
2021/06/16 08:30:25;;;;;;;1.80;1.70;;;;;;;20.87;66.04;100606.13;5057904;28;20183;-73
2021/06/16 08:32:51;;;;;;;1.73;1.40;;;;;;;21.03;67.26;100600.34;5050052;28;20167;-73
2021/06/16 08:35:16;;;;;;;1.80;1.43;;;;;;;21.14;66.26;100600.50;5050651;28;20633;-73
2021/06/16 08:37:42;;;;;;;1.60;1.50;;;;;;;21.25;66.37;100593.88;5049977;28;20181;-73
2021/06/16 08:40:08;;;;;;;2.93;1.67;;;;;;;21.32;65.19;100593.97;5050900;28;20232;-73
2021/06/16 08:42:34;;;;;;;1.90;1.70;;;;;;;21.47;63.93;100591.34;5052020;28;20187;-73
2021/06/16 08:44:59;;;;;;;1.50;1.37;;;;;;;21.49;64.71;100595.34;5052802;28;20220;-73
2021/06/16 08:47:26;;;;;;;1.33;1.23;;;;;;;21.59;62.53;100588.31;5050573;28;20193;-73
2021/06/16 08:49:53;;;;;;;3.13;1.83;;;;;;;21.22;61.71;100582.72;5050754;28;20175;-72
2021/06/16 08:52:20;;;;;;;2.53;1.80;;;;;;;21.37;63.62;100587.28;5052118;28;20270;-72
2021/06/16 08:54:45;;;;;;;5.20;1.47;;;;;;;21.67;64.13;100585.19;5054472;28;20265;-72
2021/06/16 08:57:12;;;;;;;1.37;1.30;;;;;;;21.80;61.92;100577.34;5050171;28;20639;-72
2021/06/16 08:59:37;;;;;;;1.70;1.60;;;;;;;21.97;59.50;100567.56;5032652;28;20167;-72
2021/06/16 09:02:03;;;;;;;1.20;1.20;;;;;;;21.97;58.89;100584.25;5050551;28;20744;-72
2021/06/16 09:04:49;;;;;;;2.63;1.80;;;;;;;22.10;60.29;100585.56;5050879;28;20642;-72
2021/06/16 09:07:18;;;;;;;1.70;1.57;;;;;;;22.21;59.64;100580.09;5050538;28;20604;-72
2021/06/16 09:09:44;;;;;;;1.97;1.53;;;;;;;22.21;57.18;100580.09;5050690;28;20182;-72
2021/06/16 09:12:17;;;;;;;1.97;1.67;;;;;;;22.09;58.35;100572.06;5050543;28;20175;-72
2021/06/16 09:14:49;;;;;;;4.67;1.77;;;;;;;22.25;59.51;100572.56;5050305;28;20175;-72
2021/06/16 09:17:22;;;;;;;1.53;1.30;;;;;;;22.47;58.66;100576.28;5050352;28;20540;-72
2021/06/16 09:19:52;;;;;;;2.07;1.70;;;;;;;22.65;58.58;100568.03;5030704;28;20179;-72
2021/06/16 09:22:17;;;;;;;2.13;2.00;;;;;;;22.59;58.05;100573.19;5042525;28;20224;-72
2021/06/16 09:24:44;;;;;;;1.97;1.87;;;;;;;22.66;60.02;100564.84;5050803;28;20274;-73
2021/06/16 09:27:10;;;;;;;3.07;1.80;;;;;;;22.86;58.75;100559.81;5054326;28;20211;-72
2021/06/16 09:29:36;;;;;;;2.30;2.17;;;;;;;23.02;58.18;100557.47;5054573;28;20177;-71
2021/06/16 09:32:05;;;;;;;2.53;2.30;;;;;;;22.77;57.52;100556.53;5054638;28;20214;-71
2021/06/16 09:34:32;;;;;;;2.40;2.20;;;;;;;22.71;59.22;100558.91;5054459;28;20528;-71
2021/06/16 09:37:04;;;;;;;2.73;2.53;;;;;;;22.60;59.43;100554.47;5054349;28;20176;-71
2021/06/16 09:39:31;;;;;;;3.63;3.33;;;;;;;22.58;58.61;100548.50;5054421;28;20257;-71
2021/06/16 09:42:03;;;;;;;3.37;2.73;;;;;;;22.81;62.02;100557.34;5054541;28;20313;-72
2021/06/16 09:44:46;;;;;;;4.60;2.57;;;;;;;23.05;61.02;100548.31;5054391;28;20175;-71
2021/06/16 09:47:13;;;;;;;2.87;2.60;;;;;;;22.88;60.39;100551.84;5053464;28;20677;-71
2021/06/16 09:49:49;;;;;;;3.77;3.47;;;;;;;23.13;61.64;100544.34;5053738;28;20175;-72
2021/06/16 09:52:34;;;;;;;3.53;3.23;;;;;;;23.05;59.62;100547.53;5050883;28;20178;-71
2021/06/16 09:55:03;;;;;;;3.97;3.67;;;;;;;22.97;59.40;100551.47;5054096;28;20179;-71
2021/06/16 09:57:28;;;;;;;3.30;3.00;;;;;;;23.32;61.25;100542.41;5053832;28;20186;-72
2021/06/16 10:00:09;;;;;;;3.30;3.07;;;;;;;23.31;60.56;100543.63;5069302;28;20183;-72
2021/06/16 10:02:37;;;;;;;3.37;3.17;;;;;;;23.19;60.44;100538.41;5054141;28;20255;-72
2021/06/16 10:05:03;;;;;;;3.30;3.03;;;;;;;23.59;63.11;100542.88;5053857;28;20179;-72
2021/06/16 10:07:29;;;;;;;6.33;3.37;;;;;;;23.66;61.80;100540.09;5055806;28;20195;-71
2021/06/16 10:10:10;;;;;;;4.00;3.60;;;;;;;23.61;60.55;100534.91;5054688;28;20887;-72
2021/06/16 10:12:44;;;;;;;3.60;3.30;;;;;;;23.73;61.80;100534.53;5050908;28;20171;-72
2021/06/16 10:15:12;;;;;;;5.80;4.00;;;;;;;23.60;60.53;100530.53;5053739;28;20172;-72
2021/06/16 10:17:38;;;;;;;3.50;3.20;;;;;;;24.06;61.92;100522.13;5053614;28;20182;-72
2021/06/16 10:20:05;;;;;;;4.43;4.03;;;;;;;24.23;58.99;100524.06;5053749;28;20179;-72
2021/06/16 10:22:31;;;;;;;3.47;3.27;;;;;;;24.14;59.40;100525.69;5053392;28;20631;-72
2021/06/16 10:24:56;;;;;;;4.60;4.30;;;;;;;24.16;59.99;100523.28;5053733;28;20180;-72
2021/06/16 10:27:41;;;;;;;3.40;3.20;;;;;;;24.29;58.47;100519.69;5053617;28;20214;-73
2021/06/16 10:30:13;;;;;;;3.90;3.60;;;;;;;24.54;59.68;100518.81;5053486;28;20688;-73
2021/06/16 10:32:42;;;;;;;4.57;4.27;;;;;;;24.54;58.86;100513.25;5053578;28;20156;-73
2021/06/16 10:35:10;;;;;;;4.17;3.87;;;;;;;24.40;59.43;100507.69;5053395;28;20183;-73
2021/06/16 10:37:40;;;;;;;3.67;3.37;;;;;;;24.65;60.57;100516.78;5052237;28;20630;-73
2021/06/16 10:40:18;;;;;;;5.10;3.67;;;;;;;25.00;56.79;100515.84;5053355;28;20206;-73
2021/06/16 10:43:16;;;;;;;3.67;3.47;;;;;;;25.24;59.88;100513.31;5052815;28;20171;-73
2021/06/16 10:45:49;;;;;;;3.93;3.73;;;;;;;25.17;57.78;100517.75;5036881;28;20187;-73
2021/06/16 10:48:15;;;;;;;4.10;3.90;;;;;;;24.91;58.59;100513.47;5052309;28;20265;-73
2021/06/16 10:50:47;;;;;;;4.57;4.27;;;;;;;24.77;59.10;100501.59;5052649;28;20203;-74
2021/06/16 10:53:19;;;;;;;3.93;3.63;;;;;;;25.14;61.10;100500.97;5052663;28;20579;-73
2021/06/16 10:55:57;;;;;;;4.27;3.97;;;;;;;25.44;56.60;100500.38;5052903;28;20179;-73
2021/06/16 10:58:44;;;;;;;4.17;3.87;;;;;;;25.32;57.23;100501.69;5051569;28;20179;-73
2021/06/16 11:01:16;;;;;;;3.93;3.73;;;;;;;25.39;58.82;100498.81;5062862;28;20214;-73
2021/06/16 11:03:51;;;;;;;9.07;4.57;;;;;;;24.71;58.82;100492.81;5069223;28;20213;-73
2021/06/16 11:06:31;;;;;;;4.27;4.03;;;;;;;24.78;59.63;100487.19;5072736;28;20622;-73
2021/06/16 11:08:57;;;;;;;4.43;4.13;;;;;;;24.60;58.75;100492.09;5060762;28;20175;-73
2021/06/16 11:11:24;;;;;;;4.67;4.27;;;;;;;25.13;59.95;100488.22;5052731;28;20305;-73
2021/06/16 11:13:50;;;;;;;4.27;4.03;;;;;;;25.26;59.03;100491.31;5052698;28;20175;-73
2021/06/16 11:16:46;;;;;;;4.60;4.30;;;;;;;25.13;58.93;100468.63;5052479;28;20175;-74
2021/06/16 11:19:26;;;;;;;4.37;4.07;;;;;;;25.67;58.35;100483.00;5036122;28;20191;-73
2021/06/16 11:21:54;;;;;;;3.73;3.47;;;;;;;26.02;56.82;100481.88;5052317;28;20399;-73
2021/06/16 11:24:20;;;;;;;4.57;4.30;;;;;;;26.22;56.61;100473.69;5052574;28;20655;-73
2021/06/16 11:26:46;;;;;;;4.60;4.30;;;;;;;26.18;55.59;100467.31;5052307;28;20191;-73